sensor_id;sensor_type;location;lat;lon;timestamp;P1;durP1;ratioP1;P2;durP2;ratioP2
70946;SDS011;58605;48.700;8.760;2024-01-27T00:00:48;8.53;;;5.37;;
70946;SDS011;58605;48.700;8.760;2024-01-27T00:03:15;7.77;;;5.40;;
70946;SDS011;58605;48.700;8.760;2024-01-27T00:05:42;7.20;;;4.30;;
70946;SDS011;58605;48.700;8.760;2024-01-27T00:08:09;6.37;;;4.10;;
70946;SDS011;58605;48.700;8.760;2024-01-27T00:10:35;5.77;;;4.43;;
70946;SDS011;58605;48.700;8.760;2024-01-27T00:13:01;10.63;;;4.83;;
70946;SDS011;58605;48.700;8.760;2024-01-27T00:15:28;6.43;;;3.70;;
70946;SDS011;58605;48.700;8.760;2024-01-27T00:17:54;6.00;;;3.93;;
70946;SDS011;58605;48.700;8.760;2024-01-27T00:20:20;7.37;;;4.43;;
70946;SDS011;58605;48.700;8.760;2024-01-27T00:22:46;7.47;;;4.10;;
70946;SDS011;58605;48.700;8.760;2024-01-27T00:25:13;11.00;;;7.00;;
70946;SDS011;58605;48.700;8.760;2024-01-27T00:27:40;14.23;;;7.83;;
70946;SDS011;58605;48.700;8.760;2024-01-27T00:30:06;10.30;;;5.97;;
70946;SDS011;58605;48.700;8.760;2024-01-27T00:32:33;11.13;;;6.17;;
70946;SDS011;58605;48.700;8.760;2024-01-27T00:34:59;8.27;;;5.67;;
70946;SDS011;58605;48.700;8.760;2024-01-27T00:37:25;8.67;;;4.47;;
70946;SDS011;58605;48.700;8.760;2024-01-27T00:39:52;7.40;;;4.63;;
70946;SDS011;58605;48.700;8.760;2024-01-27T00:42:20;9.37;;;4.93;;
70946;SDS011;58605;48.700;8.760;2024-01-27T00:44:49;7.13;;;4.73;;
70946;SDS011;58605;48.700;8.760;2024-01-27T00:47:15;5.40;;;3.97;;
70946;SDS011;58605;48.700;8.760;2024-01-27T00:49:41;5.27;;;4.20;;
70946;SDS011;58605;48.700;8.760;2024-01-27T00:52:07;8.30;;;4.60;;
70946;SDS011;58605;48.700;8.760;2024-01-27T00:54:34;7.30;;;4.33;;
70946;SDS011;58605;48.700;8.760;2024-01-27T00:57:00;10.40;;;4.60;;
70946;SDS011;58605;48.700;8.760;2024-01-27T00:59:27;7.23;;;4.80;;
70946;SDS011;58605;48.700;8.760;2024-01-27T01:01:54;7.50;;;4.67;;
70946;SDS011;58605;48.700;8.760;2024-01-27T01:04:21;8.20;;;3.87;;
70946;SDS011;58605;48.700;8.760;2024-01-27T01:06:47;9.50;;;4.60;;
70946;SDS011;58605;48.700;8.760;2024-01-27T01:09:13;10.13;;;4.87;;
70946;SDS011;58605;48.700;8.760;2024-01-27T01:11:39;9.70;;;5.00;;
70946;SDS011;58605;48.700;8.760;2024-01-27T01:14:06;11.23;;;4.80;;
70946;SDS011;58605;48.700;8.760;2024-01-27T01:16:33;6.97;;;4.50;;
70946;SDS011;58605;48.700;8.760;2024-01-27T01:19:00;29.47;;;5.13;;
70946;SDS011;58605;48.700;8.760;2024-01-27T01:21:26;277.80;;;19.13;;
70946;SDS011;58605;48.700;8.760;2024-01-27T01:23:53;349.13;;;22.23;;
70946;SDS011;58605;48.700;8.760;2024-01-27T01:26:19;224.10;;;19.10;;
70946;SDS011;58605;48.700;8.760;2024-01-27T01:28:46;255.37;;;19.00;;
70946;SDS011;58605;48.700;8.760;2024-01-27T01:31:12;384.53;;;26.30;;
70946;SDS011;58605;48.700;8.760;2024-01-27T01:33:40;275.80;;;18.73;;
70946;SDS011;58605;48.700;8.760;2024-01-27T01:36:06;236.07;;;17.53;;
70946;SDS011;58605;48.700;8.760;2024-01-27T01:38:32;92.30;;;8.17;;
70946;SDS011;58605;48.700;8.760;2024-01-27T01:40:59;134.53;;;10.07;;
70946;SDS011;58605;48.700;8.760;2024-01-27T01:43:25;204.10;;;12.67;;
70946;SDS011;58605;48.700;8.760;2024-01-27T01:45:51;273.03;;;14.37;;
70946;SDS011;58605;48.700;8.760;2024-01-27T01:48:20;157.87;;;9.47;;
70946;SDS011;58605;48.700;8.760;2024-01-27T01:50:48;119.43;;;7.73;;
70946;SDS011;58605;48.700;8.760;2024-01-27T01:53:15;70.57;;;6.37;;
70946;SDS011;58605;48.700;8.760;2024-01-27T01:55:42;161.30;;;9.30;;
70946;SDS011;58605;48.700;8.760;2024-01-27T01:58:08;186.67;;;11.37;;
70946;SDS011;58605;48.700;8.760;2024-01-27T02:03:56;219.10;;;12.90;;
70946;SDS011;58605;48.700;8.760;2024-01-27T02:06:24;137.50;;;9.40;;
70946;SDS011;58605;48.700;8.760;2024-01-27T02:08:50;78.00;;;5.93;;
70946;SDS011;58605;48.700;8.760;2024-01-27T02:11:17;70.23;;;5.87;;
70946;SDS011;58605;48.700;8.760;2024-01-27T02:13:43;38.07;;;3.60;;
70946;SDS011;58605;48.700;8.760;2024-01-27T02:16:10;37.33;;;3.60;;
70946;SDS011;58605;48.700;8.760;2024-01-27T02:18:36;19.37;;;3.30;;
70946;SDS011;58605;48.700;8.760;2024-01-27T02:21:02;38.00;;;3.93;;
70946;SDS011;58605;48.700;8.760;2024-01-27T02:23:30;29.53;;;3.33;;
70946;SDS011;58605;48.700;8.760;2024-01-27T02:25:57;10.87;;;2.50;;
70946;SDS011;58605;48.700;8.760;2024-01-27T02:28:24;9.83;;;2.43;;
70946;SDS011;58605;48.700;8.760;2024-01-27T02:30:50;12.60;;;2.47;;
70946;SDS011;58605;48.700;8.760;2024-01-27T02:33:17;38.03;;;3.43;;
70946;SDS011;58605;48.700;8.760;2024-01-27T02:35:45;80.93;;;6.83;;
70946;SDS011;58605;48.700;8.760;2024-01-27T02:38:13;160.03;;;9.50;;
70946;SDS011;58605;48.700;8.760;2024-01-27T02:40:39;235.67;;;15.40;;
70946;SDS011;58605;48.700;8.760;2024-01-27T02:43:07;188.53;;;15.30;;
70946;SDS011;58605;48.700;8.760;2024-01-27T02:45:33;219.53;;;12.40;;
70946;SDS011;58605;48.700;8.760;2024-01-27T02:47:59;155.57;;;9.37;;
70946;SDS011;58605;48.700;8.760;2024-01-27T02:50:25;97.73;;;6.13;;
70946;SDS011;58605;48.700;8.760;2024-01-27T02:52:52;62.87;;;6.00;;
70946;SDS011;58605;48.700;8.760;2024-01-27T02:55:18;73.60;;;6.30;;
70946;SDS011;58605;48.700;8.760;2024-01-27T02:57:44;87.40;;;5.83;;
70946;SDS011;58605;48.700;8.760;2024-01-27T03:00:12;65.53;;;5.03;;
70946;SDS011;58605;48.700;8.760;2024-01-27T03:02:38;32.27;;;4.13;;
70946;SDS011;58605;48.700;8.760;2024-01-27T03:05:05;58.43;;;4.97;;
70946;SDS011;58605;48.700;8.760;2024-01-27T03:07:32;68.70;;;5.93;;
70946;SDS011;58605;48.700;8.760;2024-01-27T03:09:59;41.23;;;3.93;;
70946;SDS011;58605;48.700;8.760;2024-01-27T03:12:25;47.30;;;4.40;;
70946;SDS011;58605;48.700;8.760;2024-01-27T03:14:51;6.90;;;3.33;;
70946;SDS011;58605;48.700;8.760;2024-01-27T03:17:20;6.03;;;2.87;;
70946;SDS011;58605;48.700;8.760;2024-01-27T03:19:46;3.87;;;2.90;;
70946;SDS011;58605;48.700;8.760;2024-01-27T03:22:12;25.83;;;3.97;;
70946;SDS011;58605;48.700;8.760;2024-01-27T03:24:38;25.93;;;3.30;;
70946;SDS011;58605;48.700;8.760;2024-01-27T03:27:05;30.97;;;3.63;;
70946;SDS011;58605;48.700;8.760;2024-01-27T03:29:31;33.63;;;4.93;;
70946;SDS011;58605;48.700;8.760;2024-01-27T03:31:57;66.77;;;5.23;;
70946;SDS011;58605;48.700;8.760;2024-01-27T03:34:25;32.37;;;4.70;;
70946;SDS011;58605;48.700;8.760;2024-01-27T03:36:52;33.13;;;4.67;;
70946;SDS011;58605;48.700;8.760;2024-01-27T03:39:18;82.50;;;8.63;;
70946;SDS011;58605;48.700;8.760;2024-01-27T03:41:44;39.37;;;5.67;;
70946;SDS011;58605;48.700;8.760;2024-01-27T03:44:11;27.07;;;4.37;;
70946;SDS011;58605;48.700;8.760;2024-01-27T03:46:37;98.97;;;8.43;;
70946;SDS011;58605;48.700;8.760;2024-01-27T03:49:04;150.23;;;11.57;;
70946;SDS011;58605;48.700;8.760;2024-01-27T03:51:31;248.63;;;19.33;;
70946;SDS011;58605;48.700;8.760;2024-01-27T03:54:04;346.33;;;22.17;;
70946;SDS011;58605;48.700;8.760;2024-01-27T03:56:31;334.90;;;22.90;;
70946;SDS011;58605;48.700;8.760;2024-01-27T03:59:03;420.67;;;26.67;;
70946;SDS011;58605;48.700;8.760;2024-01-27T04:01:31;351.03;;;24.13;;
70946;SDS011;58605;48.700;8.760;2024-01-27T04:03:57;284.00;;;19.03;;
70946;SDS011;58605;48.700;8.760;2024-01-27T04:06:23;346.30;;;22.03;;
70946;SDS011;58605;48.700;8.760;2024-01-27T04:08:51;306.17;;;20.70;;
70946;SDS011;58605;48.700;8.760;2024-01-27T04:11:20;328.60;;;22.27;;
70946;SDS011;58605;48.700;8.760;2024-01-27T04:13:48;290.63;;;20.20;;
70946;SDS011;58605;48.700;8.760;2024-01-27T04:16:15;321.93;;;24.00;;
70946;SDS011;58605;48.700;8.760;2024-01-27T04:18:42;272.63;;;19.40;;
70946;SDS011;58605;48.700;8.760;2024-01-27T04:21:08;252.37;;;19.30;;
70946;SDS011;58605;48.700;8.760;2024-01-27T04:23:34;278.87;;;17.83;;
70946;SDS011;58605;48.700;8.760;2024-01-27T04:26:02;310.97;;;21.20;;
70946;SDS011;58605;48.700;8.760;2024-01-27T04:28:28;270.37;;;18.70;;
70946;SDS011;58605;48.700;8.760;2024-01-27T04:30:55;266.93;;;19.60;;
70946;SDS011;58605;48.700;8.760;2024-01-27T04:33:21;255.97;;;17.70;;
70946;SDS011;58605;48.700;8.760;2024-01-27T04:35:47;327.63;;;26.77;;
70946;SDS011;58605;48.700;8.760;2024-01-27T04:38:13;426.90;;;27.20;;
70946;SDS011;58605;48.700;8.760;2024-01-27T04:40:39;450.73;;;26.27;;
70946;SDS011;58605;48.700;8.760;2024-01-27T04:43:07;389.57;;;28.03;;
70946;SDS011;58605;48.700;8.760;2024-01-27T04:45:33;362.03;;;25.47;;
70946;SDS011;58605;48.700;8.760;2024-01-27T04:47:59;368.47;;;27.23;;
70946;SDS011;58605;48.700;8.760;2024-01-27T04:50:26;378.40;;;22.90;;
70946;SDS011;58605;48.700;8.760;2024-01-27T04:52:52;313.43;;;21.93;;
70946;SDS011;58605;48.700;8.760;2024-01-27T04:55:18;331.47;;;23.90;;
70946;SDS011;58605;48.700;8.760;2024-01-27T04:57:44;384.80;;;25.00;;
70946;SDS011;58605;48.700;8.760;2024-01-27T05:00:13;316.27;;;20.63;;
70946;SDS011;58605;48.700;8.760;2024-01-27T05:02:39;366.47;;;25.60;;
70946;SDS011;58605;48.700;8.760;2024-01-27T05:05:06;234.13;;;16.63;;
70946;SDS011;58605;48.700;8.760;2024-01-27T05:07:32;238.30;;;17.27;;
70946;SDS011;58605;48.700;8.760;2024-01-27T05:09:59;298.00;;;22.90;;
70946;SDS011;58605;48.700;8.760;2024-01-27T05:12:25;354.33;;;28.60;;
70946;SDS011;58605;48.700;8.760;2024-01-27T05:14:51;381.60;;;28.33;;
70946;SDS011;58605;48.700;8.760;2024-01-27T05:17:18;432.67;;;35.40;;
70946;SDS011;58605;48.700;8.760;2024-01-27T05:19:44;461.07;;;32.00;;
70946;SDS011;58605;48.700;8.760;2024-01-27T05:22:10;360.97;;;23.87;;
70946;SDS011;58605;48.700;8.760;2024-01-27T05:24:36;326.77;;;25.00;;
70946;SDS011;58605;48.700;8.760;2024-01-27T05:27:03;309.73;;;22.00;;
70946;SDS011;58605;48.700;8.760;2024-01-27T05:29:29;290.20;;;19.60;;
70946;SDS011;58605;48.700;8.760;2024-01-27T05:31:55;293.63;;;19.37;;
70946;SDS011;58605;48.700;8.760;2024-01-27T05:34:23;217.63;;;16.97;;
70946;SDS011;58605;48.700;8.760;2024-01-27T05:36:49;205.87;;;15.67;;
70946;SDS011;58605;48.700;8.760;2024-01-27T05:39:15;142.33;;;10.43;;
70946;SDS011;58605;48.700;8.760;2024-01-27T05:41:41;156.80;;;11.57;;
70946;SDS011;58605;48.700;8.760;2024-01-27T05:44:07;184.53;;;14.57;;
70946;SDS011;58605;48.700;8.760;2024-01-27T05:46:33;162.03;;;14.20;;
70946;SDS011;58605;48.700;8.760;2024-01-27T05:48:59;332.23;;;18.30;;
70946;SDS011;58605;48.700;8.760;2024-01-27T05:51:30;269.27;;;18.40;;
70946;SDS011;58605;48.700;8.760;2024-01-27T05:53:56;233.73;;;16.87;;
70946;SDS011;58605;48.700;8.760;2024-01-27T05:56:22;284.13;;;18.50;;
70946;SDS011;58605;48.700;8.760;2024-01-27T05:58:48;286.00;;;19.07;;
70946;SDS011;58605;48.700;8.760;2024-01-27T06:01:14;263.60;;;16.30;;
70946;SDS011;58605;48.700;8.760;2024-01-27T06:03:42;286.50;;;22.60;;
70946;SDS011;58605;48.700;8.760;2024-01-27T06:06:09;186.90;;;14.97;;
70946;SDS011;58605;48.700;8.760;2024-01-27T06:08:37;247.40;;;16.57;;
70946;SDS011;58605;48.700;8.760;2024-01-27T06:11:03;248.07;;;19.07;;
70946;SDS011;58605;48.700;8.760;2024-01-27T06:13:29;357.57;;;30.13;;
70946;SDS011;58605;48.700;8.760;2024-01-27T06:15:55;456.07;;;26.93;;
70946;SDS011;58605;48.700;8.760;2024-01-27T06:18:21;395.10;;;25.70;;
70946;SDS011;58605;48.700;8.760;2024-01-27T06:20:49;346.30;;;24.73;;
70946;SDS011;58605;48.700;8.760;2024-01-27T06:23:15;295.20;;;18.73;;
70946;SDS011;58605;48.700;8.760;2024-01-27T06:25:43;264.23;;;20.90;;
70946;SDS011;58605;48.700;8.760;2024-01-27T06:28:09;320.27;;;21.67;;
70946;SDS011;58605;48.700;8.760;2024-01-27T06:30:35;257.07;;;20.80;;
70946;SDS011;58605;48.700;8.760;2024-01-27T06:33:01;341.20;;;23.00;;
70946;SDS011;58605;48.700;8.760;2024-01-27T06:35:27;291.23;;;23.57;;
70946;SDS011;58605;48.700;8.760;2024-01-27T06:37:54;302.40;;;22.27;;
70946;SDS011;58605;48.700;8.760;2024-01-27T06:40:20;376.33;;;25.67;;
70946;SDS011;58605;48.700;8.760;2024-01-27T06:42:47;307.90;;;20.57;;
70946;SDS011;58605;48.700;8.760;2024-01-27T06:45:13;302.47;;;24.67;;
70946;SDS011;58605;48.700;8.760;2024-01-27T06:47:40;271.87;;;19.20;;
70946;SDS011;58605;48.700;8.760;2024-01-27T06:50:06;312.67;;;22.87;;
70946;SDS011;58605;48.700;8.760;2024-01-27T06:52:33;288.23;;;21.50;;
70946;SDS011;58605;48.700;8.760;2024-01-27T06:54:59;231.87;;;17.17;;
70946;SDS011;58605;48.700;8.760;2024-01-27T06:57:25;189.67;;;14.87;;
70946;SDS011;58605;48.700;8.760;2024-01-27T06:59:53;124.40;;;10.50;;
70946;SDS011;58605;48.700;8.760;2024-01-27T07:02:22;111.90;;;10.30;;
70946;SDS011;58605;48.700;8.760;2024-01-27T07:04:48;81.97;;;9.07;;
70946;SDS011;58605;48.700;8.760;2024-01-27T07:07:14;150.43;;;13.60;;
70946;SDS011;58605;48.700;8.760;2024-01-27T07:09:40;104.60;;;9.23;;
70946;SDS011;58605;48.700;8.760;2024-01-27T07:12:06;37.30;;;5.70;;
70946;SDS011;58605;48.700;8.760;2024-01-27T07:14:34;36.70;;;4.73;;
70946;SDS011;58605;48.700;8.760;2024-01-27T07:17:02;76.67;;;7.63;;
70946;SDS011;58605;48.700;8.760;2024-01-27T07:19:29;92.60;;;9.40;;
70946;SDS011;58605;48.700;8.760;2024-01-27T07:21:55;73.17;;;7.67;;
70946;SDS011;58605;48.700;8.760;2024-01-27T07:24:21;53.27;;;6.93;;
70946;SDS011;58605;48.700;8.760;2024-01-27T07:26:55;40.10;;;5.67;;
70946;SDS011;58605;48.700;8.760;2024-01-27T07:29:23;16.40;;;7.17;;
70946;SDS011;58605;48.700;8.760;2024-01-27T07:31:49;15.93;;;9.37;;
70946;SDS011;58605;48.700;8.760;2024-01-27T07:34:17;18.53;;;9.90;;
70946;SDS011;58605;48.700;8.760;2024-01-27T07:36:50;22.00;;;12.10;;
70946;SDS011;58605;48.700;8.760;2024-01-27T07:39:16;22.10;;;9.60;;
70946;SDS011;58605;48.700;8.760;2024-01-27T07:41:43;23.60;;;8.20;;
70946;SDS011;58605;48.700;8.760;2024-01-27T07:44:09;14.87;;;7.33;;
70946;SDS011;58605;48.700;8.760;2024-01-27T07:46:36;19.17;;;6.83;;
70946;SDS011;58605;48.700;8.760;2024-01-27T07:49:02;55.17;;;10.23;;
70946;SDS011;58605;48.700;8.760;2024-01-27T07:51:30;150.23;;;13.93;;
70946;SDS011;58605;48.700;8.760;2024-01-27T07:53:56;229.07;;;17.27;;
70946;SDS011;58605;48.700;8.760;2024-01-27T07:56:22;184.97;;;17.17;;
70946;SDS011;58605;48.700;8.760;2024-01-27T07:58:48;61.53;;;9.60;;
70946;SDS011;58605;48.700;8.760;2024-01-27T08:01:14;282.80;;;22.07;;
70946;SDS011;58605;48.700;8.760;2024-01-27T08:03:41;364.47;;;29.83;;
70946;SDS011;58605;48.700;8.760;2024-01-27T08:06:10;491.50;;;37.40;;
70946;SDS011;58605;48.700;8.760;2024-01-27T08:08:41;476.77;;;36.20;;
70946;SDS011;58605;48.700;8.760;2024-01-27T08:11:07;472.37;;;33.30;;
70946;SDS011;58605;48.700;8.760;2024-01-27T08:13:33;433.37;;;31.53;;
70946;SDS011;58605;48.700;8.760;2024-01-27T08:15:59;425.13;;;30.20;;
70946;SDS011;58605;48.700;8.760;2024-01-27T08:18:25;405.57;;;33.37;;
70946;SDS011;58605;48.700;8.760;2024-01-27T08:20:51;365.17;;;28.70;;
70946;SDS011;58605;48.700;8.760;2024-01-27T08:23:17;329.80;;;24.87;;
70946;SDS011;58605;48.700;8.760;2024-01-27T08:25:45;306.03;;;25.23;;
70946;SDS011;58605;48.700;8.760;2024-01-27T08:28:15;218.93;;;17.70;;
70946;SDS011;58605;48.700;8.760;2024-01-27T08:30:41;249.70;;;17.23;;
70946;SDS011;58605;48.700;8.760;2024-01-27T08:33:07;204.40;;;18.23;;
70946;SDS011;58605;48.700;8.760;2024-01-27T08:35:33;108.13;;;10.47;;
70946;SDS011;58605;48.700;8.760;2024-01-27T08:38:05;121.40;;;11.50;;
70946;SDS011;58605;48.700;8.760;2024-01-27T08:40:32;295.23;;;20.57;;
70946;SDS011;58605;48.700;8.760;2024-01-27T08:43:00;221.60;;;17.97;;
70946;SDS011;58605;48.700;8.760;2024-01-27T08:45:26;481.77;;;34.23;;
70946;SDS011;58605;48.700;8.760;2024-01-27T08:47:52;410.10;;;34.83;;
70946;SDS011;58605;48.700;8.760;2024-01-27T08:50:18;455.73;;;32.73;;
70946;SDS011;58605;48.700;8.760;2024-01-27T08:52:45;348.10;;;24.73;;
70946;SDS011;58605;48.700;8.760;2024-01-27T08:55:14;272.03;;;22.50;;
70946;SDS011;58605;48.700;8.760;2024-01-27T08:57:44;359.10;;;26.07;;
70946;SDS011;58605;48.700;8.760;2024-01-27T09:00:12;219.83;;;20.67;;
70946;SDS011;58605;48.700;8.760;2024-01-27T09:02:40;124.73;;;13.27;;
70946;SDS011;58605;48.700;8.760;2024-01-27T09:05:06;142.70;;;13.73;;
70946;SDS011;58605;48.700;8.760;2024-01-27T09:07:33;157.37;;;16.53;;
70946;SDS011;58605;48.700;8.760;2024-01-27T09:09:59;246.60;;;20.73;;
70946;SDS011;58605;48.700;8.760;2024-01-27T09:12:25;382.20;;;29.37;;
70946;SDS011;58605;48.700;8.760;2024-01-27T09:14:51;398.17;;;33.17;;
70946;SDS011;58605;48.700;8.760;2024-01-27T09:17:20;251.27;;;20.80;;
70946;SDS011;58605;48.700;8.760;2024-01-27T09:19:46;256.53;;;22.20;;
70946;SDS011;58605;48.700;8.760;2024-01-27T09:22:12;286.83;;;22.27;;
70946;SDS011;58605;48.700;8.760;2024-01-27T09:24:38;183.60;;;15.63;;
70946;SDS011;58605;48.700;8.760;2024-01-27T09:27:05;178.60;;;15.63;;
70946;SDS011;58605;48.700;8.760;2024-01-27T09:29:31;40.07;;;7.03;;
70946;SDS011;58605;48.700;8.760;2024-01-27T09:31:57;9.07;;;4.63;;
70946;SDS011;58605;48.700;8.760;2024-01-27T09:34:25;7.77;;;4.67;;
70946;SDS011;58605;48.700;8.760;2024-01-27T09:36:52;9.37;;;5.10;;
70946;SDS011;58605;48.700;8.760;2024-01-27T09:39:18;6.43;;;5.20;;
70946;SDS011;58605;48.700;8.760;2024-01-27T09:41:44;7.70;;;5.20;;
70946;SDS011;58605;48.700;8.760;2024-01-27T09:44:13;6.70;;;5.27;;
70946;SDS011;58605;48.700;8.760;2024-01-27T09:46:43;8.40;;;5.33;;
70946;SDS011;58605;48.700;8.760;2024-01-27T09:49:10;9.57;;;5.93;;
70946;SDS011;58605;48.700;8.760;2024-01-27T09:51:40;5.10;;;4.40;;
70946;SDS011;58605;48.700;8.760;2024-01-27T09:54:07;6.87;;;4.93;;
70946;SDS011;58605;48.700;8.760;2024-01-27T09:56:33;6.17;;;5.00;;
70946;SDS011;58605;48.700;8.760;2024-01-27T09:59:00;7.03;;;5.13;;
70946;SDS011;58605;48.700;8.760;2024-01-27T10:01:26;10.87;;;5.17;;
70946;SDS011;58605;48.700;8.760;2024-01-27T10:03:54;7.27;;;4.90;;
70946;SDS011;58605;48.700;8.760;2024-01-27T10:06:20;6.20;;;4.53;;
70946;SDS011;58605;48.700;8.760;2024-01-27T10:08:51;6.60;;;4.73;;
70946;SDS011;58605;48.700;8.760;2024-01-27T10:11:20;7.90;;;5.17;;
70946;SDS011;58605;48.700;8.760;2024-01-27T10:13:53;8.53;;;5.00;;
70946;SDS011;58605;48.700;8.760;2024-01-27T10:16:20;8.57;;;4.87;;
70946;SDS011;58605;48.700;8.760;2024-01-27T10:18:46;5.77;;;4.87;;
70946;SDS011;58605;48.700;8.760;2024-01-27T10:21:12;9.73;;;5.47;;
70946;SDS011;58605;48.700;8.760;2024-01-27T10:23:39;10.03;;;6.07;;
70946;SDS011;58605;48.700;8.760;2024-01-27T10:26:08;13.17;;;7.03;;
70946;SDS011;58605;48.700;8.760;2024-01-27T10:28:34;13.30;;;6.67;;
70946;SDS011;58605;48.700;8.760;2024-01-27T10:31:07;7.10;;;4.33;;
70946;SDS011;58605;48.700;8.760;2024-01-27T10:33:34;5.83;;;4.40;;
70946;SDS011;58605;48.700;8.760;2024-01-27T10:36:00;4.70;;;4.20;;
70946;SDS011;58605;48.700;8.760;2024-01-27T10:38:33;8.43;;;4.50;;
70946;SDS011;58605;48.700;8.760;2024-01-27T10:41:00;13.93;;;5.43;;
70946;SDS011;58605;48.700;8.760;2024-01-27T10:43:27;7.30;;;4.43;;
70946;SDS011;58605;48.700;8.760;2024-01-27T10:45:55;6.60;;;4.50;;
70946;SDS011;58605;48.700;8.760;2024-01-27T10:48:22;8.17;;;4.80;;
70946;SDS011;58605;48.700;8.760;2024-01-27T10:50:50;8.40;;;5.13;;
70946;SDS011;58605;48.700;8.760;2024-01-27T10:53:19;5.80;;;5.20;;
70946;SDS011;58605;48.700;8.760;2024-01-27T10:55:53;6.23;;;4.50;;
70946;SDS011;58605;48.700;8.760;2024-01-27T10:58:22;9.93;;;5.30;;
70946;SDS011;58605;48.700;8.760;2024-01-27T11:00:51;9.27;;;4.50;;
70946;SDS011;58605;48.700;8.760;2024-01-27T11:03:18;5.97;;;4.87;;
70946;SDS011;58605;48.700;8.760;2024-01-27T11:05:46;7.83;;;4.77;;
70946;SDS011;58605;48.700;8.760;2024-01-27T11:08:12;7.17;;;5.07;;
70946;SDS011;58605;48.700;8.760;2024-01-27T11:10:39;8.00;;;5.63;;
70946;SDS011;58605;48.700;8.760;2024-01-27T11:13:06;6.40;;;5.10;;
70946;SDS011;58605;48.700;8.760;2024-01-27T11:15:34;8.67;;;5.40;;
70946;SDS011;58605;48.700;8.760;2024-01-27T11:18:02;12.00;;;6.60;;
70946;SDS011;58605;48.700;8.760;2024-01-27T11:20:30;10.17;;;6.57;;
70946;SDS011;58605;48.700;8.760;2024-01-27T11:23:07;9.53;;;5.73;;
70946;SDS011;58605;48.700;8.760;2024-01-27T11:25:34;13.57;;;6.70;;
70946;SDS011;58605;48.700;8.760;2024-01-27T11:28:09;11.07;;;6.93;;
70946;SDS011;58605;48.700;8.760;2024-01-27T11:30:38;9.57;;;6.27;;
70946;SDS011;58605;48.700;8.760;2024-01-27T11:33:06;8.77;;;5.20;;
70946;SDS011;58605;48.700;8.760;2024-01-27T11:35:33;12.53;;;5.97;;
70946;SDS011;58605;48.700;8.760;2024-01-27T11:38:00;6.47;;;5.17;;
70946;SDS011;58605;48.700;8.760;2024-01-27T11:40:26;8.27;;;5.63;;
70946;SDS011;58605;48.700;8.760;2024-01-27T11:42:55;10.93;;;6.23;;
70946;SDS011;58605;48.700;8.760;2024-01-27T11:45:22;6.13;;;4.73;;
70946;SDS011;58605;48.700;8.760;2024-01-27T11:47:48;6.73;;;4.40;;
70946;SDS011;58605;48.700;8.760;2024-01-27T11:50:18;12.43;;;5.80;;
70946;SDS011;58605;48.700;8.760;2024-01-27T11:52:44;7.33;;;4.00;;
70946;SDS011;58605;48.700;8.760;2024-01-27T11:55:10;6.17;;;4.47;;
70946;SDS011;58605;48.700;8.760;2024-01-27T11:57:37;5.60;;;3.67;;
70946;SDS011;58605;48.700;8.760;2024-01-27T12:00:03;4.83;;;3.87;;
70946;SDS011;58605;48.700;8.760;2024-01-27T12:02:31;5.13;;;3.77;;
70946;SDS011;58605;48.700;8.760;2024-01-27T12:04:57;5.03;;;3.50;;
70946;SDS011;58605;48.700;8.760;2024-01-27T12:07:25;5.87;;;4.03;;
70946;SDS011;58605;48.700;8.760;2024-01-27T12:09:51;9.10;;;4.27;;
70946;SDS011;58605;48.700;8.760;2024-01-27T12:12:17;7.40;;;4.43;;
70946;SDS011;58605;48.700;8.760;2024-01-27T12:14:45;6.30;;;3.63;;
70946;SDS011;58605;48.700;8.760;2024-01-27T12:17:12;7.87;;;4.20;;
70946;SDS011;58605;48.700;8.760;2024-01-27T12:19:39;5.60;;;3.13;;
70946;SDS011;58605;48.700;8.760;2024-01-27T12:22:21;7.50;;;3.87;;
70946;SDS011;58605;48.700;8.760;2024-01-27T12:24:50;7.30;;;4.00;;
70946;SDS011;58605;48.700;8.760;2024-01-27T12:27:16;5.87;;;3.40;;
70946;SDS011;58605;48.700;8.760;2024-01-27T12:29:43;7.47;;;3.27;;
70946;SDS011;58605;48.700;8.760;2024-01-27T12:32:09;4.00;;;3.13;;
70946;SDS011;58605;48.700;8.760;2024-01-27T12:34:39;5.83;;;2.93;;
70946;SDS011;58605;48.700;8.760;2024-01-27T12:37:06;5.47;;;3.20;;
70946;SDS011;58605;48.700;8.760;2024-01-27T12:39:33;5.63;;;2.83;;
70946;SDS011;58605;48.700;8.760;2024-01-27T12:42:01;4.00;;;2.77;;
70946;SDS011;58605;48.700;8.760;2024-01-27T12:44:27;3.67;;;2.80;;
70946;SDS011;58605;48.700;8.760;2024-01-27T12:46:53;4.43;;;2.97;;
70946;SDS011;58605;48.700;8.760;2024-01-27T12:49:19;4.90;;;3.30;;
70946;SDS011;58605;48.700;8.760;2024-01-27T12:51:45;7.33;;;3.40;;
70946;SDS011;58605;48.700;8.760;2024-01-27T12:54:12;8.37;;;4.20;;
70946;SDS011;58605;48.700;8.760;2024-01-27T12:56:38;5.83;;;2.90;;
70946;SDS011;58605;48.700;8.760;2024-01-27T12:59:06;5.47;;;3.23;;
70946;SDS011;58605;48.700;8.760;2024-01-27T13:01:33;7.13;;;3.57;;
70946;SDS011;58605;48.700;8.760;2024-01-27T13:03:59;5.33;;;3.10;;
70946;SDS011;58605;48.700;8.760;2024-01-27T13:06:25;5.83;;;3.13;;
70946;SDS011;58605;48.700;8.760;2024-01-27T13:08:52;5.77;;;3.10;;
70946;SDS011;58605;48.700;8.760;2024-01-27T13:11:19;5.47;;;3.23;;
70946;SDS011;58605;48.700;8.760;2024-01-27T13:13:45;6.20;;;3.33;;
70946;SDS011;58605;48.700;8.760;2024-01-27T13:16:13;5.87;;;3.50;;
70946;SDS011;58605;48.700;8.760;2024-01-27T13:18:39;7.20;;;3.40;;
70946;SDS011;58605;48.700;8.760;2024-01-27T13:21:05;6.57;;;2.80;;
70946;SDS011;58605;48.700;8.760;2024-01-27T13:23:31;9.07;;;3.13;;
70946;SDS011;58605;48.700;8.760;2024-01-27T13:25:57;6.97;;;2.43;;
70946;SDS011;58605;48.700;8.760;2024-01-27T13:28:24;6.10;;;3.30;;
70946;SDS011;58605;48.700;8.760;2024-01-27T13:30:50;6.10;;;3.13;;
70946;SDS011;58605;48.700;8.760;2024-01-27T13:33:17;5.87;;;3.20;;
70946;SDS011;58605;48.700;8.760;2024-01-27T13:35:43;8.03;;;2.83;;
70946;SDS011;58605;48.700;8.760;2024-01-27T13:38:12;9.07;;;3.47;;
70946;SDS011;58605;48.700;8.760;2024-01-27T13:40:38;4.23;;;2.57;;
70946;SDS011;58605;48.700;8.760;2024-01-27T13:43:04;6.03;;;2.83;;
70946;SDS011;58605;48.700;8.760;2024-01-27T13:45:30;5.53;;;2.93;;
70946;SDS011;58605;48.700;8.760;2024-01-27T13:47:56;5.13;;;3.30;;
70946;SDS011;58605;48.700;8.760;2024-01-27T13:50:24;3.60;;;3.07;;
70946;SDS011;58605;48.700;8.760;2024-01-27T13:52:51;3.47;;;2.00;;
70946;SDS011;58605;48.700;8.760;2024-01-27T13:55:17;5.00;;;2.73;;
70946;SDS011;58605;48.700;8.760;2024-01-27T13:57:43;3.13;;;2.53;;
70946;SDS011;58605;48.700;8.760;2024-01-27T14:00:10;4.27;;;2.67;;
70946;SDS011;58605;48.700;8.760;2024-01-27T14:02:37;4.33;;;2.63;;
70946;SDS011;58605;48.700;8.760;2024-01-27T14:05:03;6.40;;;2.73;;
70946;SDS011;58605;48.700;8.760;2024-01-27T14:07:31;3.20;;;2.07;;
70946;SDS011;58605;48.700;8.760;2024-01-27T14:09:58;5.87;;;2.33;;
70946;SDS011;58605;48.700;8.760;2024-01-27T14:12:25;3.90;;;2.07;;
70946;SDS011;58605;48.700;8.760;2024-01-27T14:14:51;3.97;;;2.03;;
70946;SDS011;58605;48.700;8.760;2024-01-27T14:17:17;3.10;;;1.57;;
70946;SDS011;58605;48.700;8.760;2024-01-27T14:19:45;4.00;;;2.17;;
70946;SDS011;58605;48.700;8.760;2024-01-27T14:22:12;5.70;;;1.90;;
70946;SDS011;58605;48.700;8.760;2024-01-27T14:24:39;6.60;;;2.47;;
70946;SDS011;58605;48.700;8.760;2024-01-27T14:27:06;3.63;;;1.87;;
70946;SDS011;58605;48.700;8.760;2024-01-27T14:29:33;3.67;;;1.93;;